sensor_id;sensor_type;location;lat;lon;timestamp;pressure;altitude;pressure_sealevel;temperature;humidity
28167;BME280;15455;53.376;-6.262;2023-06-26T00:00:22;101233.00;;;12.32;100.00
28167;BME280;15455;53.376;-6.262;2023-06-26T00:03:08;101242.59;;;12.33;100.00
28167;BME280;15455;53.376;-6.262;2023-06-26T00:05:53;101239.97;;;12.32;100.00
28167;BME280;15455;53.376;-6.262;2023-06-26T00:08:39;101240.88;;;12.28;100.00
28167;BME280;15455;53.376;-6.262;2023-06-26T00:11:25;101241.75;;;12.24;100.00
28167;BME280;15455;53.376;-6.262;2023-06-26T00:14:12;101245.22;;;12.20;100.00
28167;BME280;15455;53.376;-6.262;2023-06-26T00:16:58;101244.34;;;12.18;100.00
28167;BME280;15455;53.376;-6.262;2023-06-26T00:19:43;101249.59;;;12.18;100.00
28167;BME280;15455;53.376;-6.262;2023-06-26T00:22:28;101249.59;;;12.18;100.00
28167;BME280;15455;53.376;-6.262;2023-06-26T00:25:14;101257.44;;;12.16;100.00
28167;BME280;15455;53.376;-6.262;2023-06-26T00:27:59;101253.97;;;12.11;100.00
28167;BME280;15455;53.376;-6.262;2023-06-26T00:30:45;101250.47;;;12.04;100.00
28167;BME280;15455;53.376;-6.262;2023-06-26T00:33:30;101253.09;;;11.98;100.00
28167;BME280;15455;53.376;-6.262;2023-06-26T00:36:16;101253.06;;;11.92;100.00
28167;BME280;15455;53.376;-6.262;2023-06-26T00:39:01;101250.47;;;11.89;100.00
28167;BME280;15455;53.376;-6.262;2023-06-26T00:41:48;101249.56;;;11.87;100.00
28167;BME280;15455;53.376;-6.262;2023-06-26T00:44:35;101254.81;;;11.84;100.00
28167;BME280;15455;53.376;-6.262;2023-06-26T00:47:21;101259.16;;;11.78;100.00
28167;BME280;15455;53.376;-6.262;2023-06-26T00:50:06;101256.53;;;11.75;100.00
28167;BME280;15455;53.376;-6.262;2023-06-26T00:52:53;101264.38;;;11.78;100.00
28167;BME280;15455;53.376;-6.262;2023-06-26T00:55:40;101268.75;;;11.76;100.00
28167;BME280;15455;53.376;-6.262;2023-06-26T00:58:26;101273.97;;;11.76;100.00
28167;BME280;15455;53.376;-6.262;2023-06-26T01:01:12;101273.13;;;11.76;100.00
28167;BME280;15455;53.376;-6.262;2023-06-26T01:04:03;101281.81;;;11.82;100.00
28167;BME280;15455;53.376;-6.262;2023-06-26T01:06:49;101268.75;;;11.84;100.00
28167;BME280;15455;53.376;-6.262;2023-06-26T01:09:35;101282.72;;;11.85;100.00
28167;BME280;15455;53.376;-6.262;2023-06-26T01:12:21;101281.81;;;11.86;100.00
28167;BME280;15455;53.376;-6.262;2023-06-26T01:15:07;101281.81;;;11.86;100.00
28167;BME280;15455;53.376;-6.262;2023-06-26T01:17:53;101283.56;;;11.91;100.00
28167;BME280;15455;53.376;-6.262;2023-06-26T01:20:40;101280.94;;;11.93;100.00
28167;BME280;15455;53.376;-6.262;2023-06-26T01:23:34;101283.56;;;11.91;100.00
28167;BME280;15455;53.376;-6.262;2023-06-26T01:26:23;101293.16;;;11.92;100.00
28167;BME280;15455;53.376;-6.262;2023-06-26T01:29:13;101285.31;;;11.91;100.00
28167;BME280;15455;53.376;-6.262;2023-06-26T01:32:00;101295.78;;;11.89;100.00
28167;BME280;15455;53.376;-6.262;2023-06-26T01:34:46;101294.03;;;11.88;100.00
28167;BME280;15455;53.376;-6.262;2023-06-26T01:37:32;101295.78;;;11.86;100.00
28167;BME280;15455;53.376;-6.262;2023-06-26T01:40:17;101293.13;;;11.80;100.00
28167;BME280;15455;53.376;-6.262;2023-06-26T01:43:06;101291.41;;;11.82;100.00
28167;BME280;15455;53.376;-6.262;2023-06-26T01:46:06;101304.50;;;11.84;100.00
28167;BME280;15455;53.376;-6.262;2023-06-26T01:52:25;101299.25;;;11.84;100.00
28167;BME280;15455;53.376;-6.262;2023-06-26T01:55:21;101300.13;;;11.86;100.00
28167;BME280;15455;53.376;-6.262;2023-06-26T01:58:09;101294.91;;;11.86;100.00
28167;BME280;15455;53.376;-6.262;2023-06-26T02:00:55;101299.25;;;11.84;100.00
28167;BME280;15455;53.376;-6.262;2023-06-26T02:03:41;101298.41;;;11.83;100.00
28167;BME280;15455;53.376;-6.262;2023-06-26T02:06:27;101293.19;;;11.83;100.00
28167;BME280;15455;53.376;-6.262;2023-06-26T02:09:12;101301.03;;;11.85;100.00
28167;BME280;15455;53.376;-6.262;2023-06-26T02:11:57;101290.56;;;11.81;100.00
28167;BME280;15455;53.376;-6.262;2023-06-26T02:14:43;101291.41;;;11.79;100.00
28167;BME280;15455;53.376;-6.262;2023-06-26T02:17:30;101297.50;;;11.76;100.00
28167;BME280;15455;53.376;-6.262;2023-06-26T02:20:15;101298.38;;;11.75;100.00
28167;BME280;15455;53.376;-6.262;2023-06-26T02:23:01;101296.63;;;11.71;100.00
28167;BME280;15455;53.376;-6.262;2023-06-26T02:25:46;101299.22;;;11.70;100.00
28167;BME280;15455;53.376;-6.262;2023-06-26T02:28:32;101305.34;;;11.67;100.00
28167;BME280;15455;53.376;-6.262;2023-06-26T02:31:19;101293.13;;;11.66;100.00
28167;BME280;15455;53.376;-6.262;2023-06-26T02:34:05;101305.31;;;11.64;100.00
28167;BME280;15455;53.376;-6.262;2023-06-26T02:36:51;101300.09;;;11.64;100.00
28167;BME280;15455;53.376;-6.262;2023-06-26T02:39:40;101306.22;;;11.61;100.00
28167;BME280;15455;53.376;-6.262;2023-06-26T02:42:27;101300.97;;;11.63;100.00
28167;BME280;15455;53.376;-6.262;2023-06-26T02:45:13;101310.53;;;11.62;100.00
28167;BME280;15455;53.376;-6.262;2023-06-26T02:47:58;101306.22;;;11.58;100.00
28167;BME280;15455;53.376;-6.262;2023-06-26T02:50:44;101329.75;;;11.58;100.00
28167;BME280;15455;53.376;-6.262;2023-06-26T02:53:32;101333.22;;;11.56;100.00
28167;BME280;15455;53.376;-6.262;2023-06-26T02:56:18;101328.84;;;11.55;100.00
28167;BME280;15455;53.376;-6.262;2023-06-26T02:59:03;101322.75;;;11.51;100.00
28167;BME280;15455;53.376;-6.262;2023-06-26T03:01:49;101326.22;;;11.50;100.00
28167;BME280;15455;53.376;-6.262;2023-06-26T03:04:36;101331.44;;;11.50;100.00
28167;BME280;15455;53.376;-6.262;2023-06-26T03:07:24;101335.78;;;11.48;100.00
28167;BME280;15455;53.376;-6.262;2023-06-26T03:10:10;101333.16;;;11.50;100.00
28167;BME280;15455;53.376;-6.262;2023-06-26T03:12:55;101338.38;;;11.46;100.00
28167;BME280;15455;53.376;-6.262;2023-06-26T03:15:41;101334.06;;;11.45;100.00
28167;BME280;15455;53.376;-6.262;2023-06-26T03:18:27;101328.81;;;11.45;100.00
28167;BME280;15455;53.376;-6.262;2023-06-26T03:21:13;101330.53;;;11.43;100.00
28167;BME280;15455;53.376;-6.262;2023-06-26T03:23:58;101328.78;;;11.42;100.00
28167;BME280;15455;53.376;-6.262;2023-06-26T03:26:45;101334.91;;;11.41;100.00
28167;BME280;15455;53.376;-6.262;2023-06-26T03:29:31;101337.50;;;11.40;100.00
28167;BME280;15455;53.376;-6.262;2023-06-26T03:32:17;101342.69;;;11.35;100.00
28167;BME280;15455;53.376;-6.262;2023-06-26T03:35:03;101342.69;;;11.35;100.00
28167;BME280;15455;53.376;-6.262;2023-06-26T03:37:51;101344.44;;;11.36;100.00
28167;BME280;15455;53.376;-6.262;2023-06-26T03:40:37;101359.25;;;11.33;100.00
28167;BME280;15455;53.376;-6.262;2023-06-26T03:43:23;101357.50;;;11.32;100.00
28167;BME280;15455;53.376;-6.262;2023-06-26T03:46:21;101352.28;;;11.28;100.00
28167;BME280;15455;53.376;-6.262;2023-06-26T03:49:07;101355.72;;;11.24;100.00
28167;BME280;15455;53.376;-6.262;2023-06-26T03:51:55;101369.66;;;11.20;100.00
28167;BME280;15455;53.376;-6.262;2023-06-26T03:54:41;101369.63;;;11.19;100.00
28167;BME280;15455;53.376;-6.262;2023-06-26T03:57:28;101358.31;;;11.18;100.00
28167;BME280;15455;53.376;-6.262;2023-06-26T04:00:14;101359.19;;;11.17;100.00
28167;BME280;15455;53.376;-6.262;2023-06-26T04:03:00;101361.78;;;11.17;100.00
28167;BME280;15455;53.376;-6.262;2023-06-26T04:05:48;101367.03;;;11.17;100.00
28167;BME280;15455;53.376;-6.262;2023-06-26T04:08:34;101362.66;;;11.16;100.00
28167;BME280;15455;53.376;-6.262;2023-06-26T04:11:20;101368.78;;;11.17;100.00
28167;BME280;15455;53.376;-6.262;2023-06-26T04:14:05;101371.38;;;11.15;100.00
28167;BME280;15455;53.376;-6.262;2023-06-26T04:16:50;101369.63;;;11.16;100.00
28167;BME280;15455;53.376;-6.262;2023-06-26T04:19:36;101369.63;;;11.14;100.00
28167;BME280;15455;53.376;-6.262;2023-06-26T04:22:21;101372.22;;;11.12;100.00
28167;BME280;15455;53.376;-6.262;2023-06-26T04:25:07;101380.94;;;11.15;100.00
28167;BME280;15455;53.376;-6.262;2023-06-26T04:27:53;101376.63;;;11.18;100.00
28167;BME280;15455;53.376;-6.262;2023-06-26T04:30:38;101380.97;;;11.21;100.00
28167;BME280;15455;53.376;-6.262;2023-06-26T04:33:24;101394.94;;;11.24;100.00
28167;BME280;15455;53.376;-6.262;2023-06-26T04:36:11;101392.31;;;11.26;100.00
28167;BME280;15455;53.376;-6.262;2023-06-26T04:38:58;101394.09;;;11.30;100.00
28167;BME280;15455;53.376;-6.262;2023-06-26T04:41:46;101400.19;;;11.35;100.00
28167;BME280;15455;53.376;-6.262;2023-06-26T04:44:33;101398.47;;;11.36;100.00
28167;BME280;15455;53.376;-6.262;2023-06-26T04:47:19;101409.78;;;11.36;100.00
28167;BME280;15455;53.376;-6.262;2023-06-26T04:50:05;101410.69;;;11.37;100.00
28167;BME280;15455;53.376;-6.262;2023-06-26T04:52:51;101413.31;;;11.38;100.00
28167;BME280;15455;53.376;-6.262;2023-06-26T04:55:37;101426.38;;;11.44;100.00
28167;BME280;15455;53.376;-6.262;2023-06-26T04:58:23;101422.94;;;11.52;100.00
28167;BME280;15455;53.376;-6.262;2023-06-26T05:01:09;101428.16;;;11.52;100.00
28167;BME280;15455;53.376;-6.262;2023-06-26T05:03:56;101429.03;;;11.52;100.00
28167;BME280;15455;53.376;-6.262;2023-06-26T05:06:41;101429.03;;;11.54;100.00
28167;BME280;15455;53.376;-6.262;2023-06-26T05:09:27;101422.97;;;11.56;100.00
28167;BME280;15455;53.376;-6.262;2023-06-26T05:12:13;101425.56;;;11.58;100.00
28167;BME280;15455;53.376;-6.262;2023-06-26T05:14:58;101429.94;;;11.60;100.00
28167;BME280;15455;53.376;-6.262;2023-06-26T05:17:44;101437.81;;;11.63;100.00
28167;BME280;15455;53.376;-6.262;2023-06-26T05:20:30;101442.19;;;11.68;100.00
28167;BME280;15455;53.376;-6.262;2023-06-26T05:23:16;101436.97;;;11.72;100.00
28167;BME280;15455;53.376;-6.262;2023-06-26T05:26:02;101431.75;;;11.75;100.00
28167;BME280;15455;53.376;-6.262;2023-06-26T05:28:48;101442.22;;;11.78;100.00
28167;BME280;15455;53.376;-6.262;2023-06-26T05:31:35;101443.97;;;11.81;100.00
28167;BME280;15455;53.376;-6.262;2023-06-26T05:34:26;101445.72;;;11.84;100.00
28167;BME280;15455;53.376;-6.262;2023-06-26T05:37:20;101449.25;;;11.89;100.00
28167;BME280;15455;53.376;-6.262;2023-06-26T05:40:07;101437.91;;;11.93;100.00
28167;BME280;15455;53.376;-6.262;2023-06-26T05:42:53;101444.06;;;11.95;100.00
28167;BME280;15455;53.376;-6.262;2023-06-26T05:45:40;101441.44;;;11.99;100.00
28167;BME280;15455;53.376;-6.262;2023-06-26T05:48:26;101439.69;;;12.02;100.00
28167;BME280;15455;53.376;-6.262;2023-06-26T05:51:11;101444.97;;;12.05;100.00
28167;BME280;15455;53.376;-6.262;2023-06-26T05:53:57;101437.97;;;12.08;100.00
28167;BME280;15455;53.376;-6.262;2023-06-26T05:56:43;101447.59;;;12.14;100.00
28167;BME280;15455;53.376;-6.262;2023-06-26T05:59:31;101443.22;;;12.18;100.00
28167;BME280;15455;53.376;-6.262;2023-06-26T06:02:16;101441.50;;;12.26;100.00
28167;BME280;15455;53.376;-6.262;2023-06-26T06:05:02;101444.16;;;12.44;100.00
28167;BME280;15455;53.376;-6.262;2023-06-26T06:07:48;101446.78;;;12.67;100.00
28167;BME280;15455;53.376;-6.262;2023-06-26T06:10:33;101431.06;;;13.00;100.00
28167;BME280;15455;53.376;-6.262;2023-06-26T06:13:19;101432.72;;;13.24;100.00
28167;BME280;15455;53.376;-6.262;2023-06-26T06:16:04;101422.25;;;13.40;100.00
28167;BME280;15455;53.376;-6.262;2023-06-26T06:18:49;101424.81;;;13.50;100.00
28167;BME280;15455;53.376;-6.262;2023-06-26T06:21:35;101425.66;;;13.59;100.00
28167;BME280;15455;53.376;-6.262;2023-06-26T06:24:20;101432.63;;;13.67;100.00
28167;BME280;15455;53.376;-6.262;2023-06-26T06:27:06;101428.25;;;13.71;100.00
28167;BME280;15455;53.376;-6.262;2023-06-26T06:29:51;101432.63;;;13.67;100.00
28167;BME280;15455;53.376;-6.262;2023-06-26T06:32:36;101433.53;;;13.62;100.00
28167;BME280;15455;53.376;-6.262;2023-06-26T06:35:22;101438.78;;;13.55;100.00
28167;BME280;15455;53.376;-6.262;2023-06-26T06:38:12;101427.44;;;13.47;100.00
28167;BME280;15455;53.376;-6.262;2023-06-26T06:40:57;101444.06;;;13.42;100.00
28167;BME280;15455;53.376;-6.262;2023-06-26T06:43:43;101450.22;;;13.39;100.00
28167;BME280;15455;53.376;-6.262;2023-06-26T06:46:28;101452.84;;;13.39;100.00
28167;BME280;15455;53.376;-6.262;2023-06-26T06:49:14;101451.94;;;13.49;100.00
28167;BME280;15455;53.376;-6.262;2023-06-26T06:51:59;101455.34;;;13.71;100.00
28167;BME280;15455;53.376;-6.262;2023-06-26T06:54:54;101464.84;;;13.97;100.00
28167;BME280;15455;53.376;-6.262;2023-06-26T06:57:40;101455.19;;;14.09;100.00
28167;BME280;15455;53.376;-6.262;2023-06-26T07:00:26;101460.44;;;14.07;100.00
28167;BME280;15455;53.376;-6.262;2023-06-26T07:03:11;101455.22;;;14.04;100.00
28167;BME280;15455;53.376;-6.262;2023-06-26T07:05:57;101458.69;;;14.06;100.00
28167;BME280;15455;53.376;-6.262;2023-06-26T07:08:43;101464.78;;;14.14;100.00
28167;BME280;15455;53.376;-6.262;2023-06-26T07:11:28;101470.88;;;14.15;100.00
28167;BME280;15455;53.376;-6.262;2023-06-26T07:14:13;101468.28;;;14.13;100.00
28167;BME280;15455;53.376;-6.262;2023-06-26T07:16:59;101465.59;;;14.21;100.00
28167;BME280;15455;53.376;-6.262;2023-06-26T07:19:44;101479.50;;;14.35;100.00
28167;BME280;15455;53.376;-6.262;2023-06-26T07:22:29;101473.38;;;14.35;100.00
28167;BME280;15455;53.376;-6.262;2023-06-26T07:25:14;101471.63;;;14.34;100.00
28167;BME280;15455;53.376;-6.262;2023-06-26T07:28:00;101474.34;;;14.23;100.00
28167;BME280;15455;53.376;-6.262;2023-06-26T07:30:46;101476.19;;;14.02;100.00
28167;BME280;15455;53.376;-6.262;2023-06-26T07:33:31;101475.38;;;13.88;100.00
28167;BME280;15455;53.376;-6.262;2023-06-26T07:36:16;101480.63;;;13.88;100.00
28167;BME280;15455;53.376;-6.262;2023-06-26T07:39:02;101473.59;;;13.95;100.00
28167;BME280;15455;53.376;-6.262;2023-06-26T07:41:48;101477.97;;;13.99;100.00
28167;BME280;15455;53.376;-6.262;2023-06-26T07:44:33;101488.44;;;14.05;100.00
28167;BME280;15455;53.376;-6.262;2023-06-26T07:47:18;101498.88;;;14.17;100.00
28167;BME280;15455;53.376;-6.262;2023-06-26T07:50:04;101495.28;;;14.31;100.00
28167;BME280;15455;53.376;-6.262;2023-06-26T07:52:50;101497.81;;;14.48;100.00
28167;BME280;15455;53.376;-6.262;2023-06-26T07:55:37;101498.56;;;14.71;100.00
28167;BME280;15455;53.376;-6.262;2023-06-26T07:58:22;101498.34;;;14.96;100.00
28167;BME280;15455;53.376;-6.262;2023-06-26T08:01:08;101482.34;;;15.24;100.00
28167;BME280;15455;53.376;-6.262;2023-06-26T08:03:53;101493.75;;;15.21;100.00
28167;BME280;15455;53.376;-6.262;2023-06-26T08:06:40;101497.25;;;15.22;100.00
28167;BME280;15455;53.376;-6.262;2023-06-26T08:09:27;101494.53;;;15.29;100.00
28167;BME280;15455;53.376;-6.262;2023-06-26T08:12:13;101492.53;;;15.53;100.00
28167;BME280;15455;53.376;-6.262;2023-06-26T08:14:58;101499.31;;;15.73;100.00
28167;BME280;15455;53.376;-6.262;2023-06-26T08:17:44;101487.84;;;15.85;100.00
28167;BME280;15455;53.376;-6.262;2023-06-26T08:20:31;101495.78;;;15.82;100.00
28167;BME280;15455;53.376;-6.262;2023-06-26T08:23:16;101502.91;;;15.69;100.00
28167;BME280;15455;53.376;-6.262;2023-06-26T08:26:02;101497.78;;;15.55;100.00
28167;BME280;15455;53.376;-6.262;2023-06-26T08:28:47;101504.00;;;15.48;100.00
28167;BME280;15455;53.376;-6.262;2023-06-26T08:31:34;101495.25;;;15.47;100.00
28167;BME280;15455;53.376;-6.262;2023-06-26T08:34:19;101503.88;;;15.60;100.00
28167;BME280;15455;53.376;-6.262;2023-06-26T08:37:05;101498.47;;;15.71;100.00
28167;BME280;15455;53.376;-6.262;2023-06-26T08:39:52;101503.78;;;15.68;100.00
28167;BME280;15455;53.376;-6.262;2023-06-26T08:42:37;101498.59;;;15.58;100.00
28167;BME280;15455;53.376;-6.262;2023-06-26T08:45:22;101497.66;;;15.64;100.00
28167;BME280;15455;53.376;-6.262;2023-06-26T08:48:09;101495.94;;;15.65;100.00
28167;BME280;15455;53.376;-6.262;2023-06-26T08:50:55;101499.31;;;15.73;100.00
28167;BME280;15455;53.376;-6.262;2023-06-26T08:54:14;101501.03;;;15.78;100.00
28167;BME280;15455;53.376;-6.262;2023-06-26T08:57:01;101500.16;;;15.81;100.00
28167;BME280;15455;53.376;-6.262;2023-06-26T08:59:47;101500.00;;;15.93;100.00
28167;BME280;15455;53.376;-6.262;2023-06-26T09:02:33;101500.69;;;16.09;100.00
28167;BME280;15455;53.376;-6.262;2023-06-26T09:05:18;101510.91;;;16.31;100.00
28167;BME280;15455;53.376;-6.262;2023-06-26T09:08:04;101507.19;;;16.44;100.00
28167;BME280;15455;53.376;-6.262;2023-06-26T09:10:51;101506.09;;;16.59;100.00
28167;BME280;15455;53.376;-6.262;2023-06-26T09:13:37;101505.06;;;16.70;100.00
28167;BME280;15455;53.376;-6.262;2023-06-26T09:16:26;101498.03;;;16.70;100.00
28167;BME280;15455;53.376;-6.262;2023-06-26T09:19:12;101491.78;;;16.76;100.00
28167;BME280;15455;53.376;-6.262;2023-06-26T09:21:58;101497.94;;;16.75;100.00
28167;BME280;15455;53.376;-6.262;2023-06-26T09:24:45;101509.53;;;16.64;100.00
28167;BME280;15455;53.376;-6.262;2023-06-26T09:27:30;101507.94;;;16.54;100.00
28167;BME280;15455;53.376;-6.262;2023-06-26T09:30:17;101502.75;;;16.48;100.00
28167;BME280;15455;53.376;-6.262;2023-06-26T09:33:14;101512.53;;;16.41;100.00
28167;BME280;15455;53.376;-6.262;2023-06-26T09:36:00;101514.47;;;16.27;100.00
28167;BME280;15455;53.376;-6.262;2023-06-26T09:38:45;101514.44;;;16.30;100.00
28167;BME280;15455;53.376;-6.262;2023-06-26T09:41:31;101504.53;;;16.46;100.00
28167;BME280;15455;53.376;-6.262;2023-06-26T09:44:18;101505.84;;;16.75;100.00
28167;BME280;15455;53.376;-6.262;2023-06-26T09:47:03;101500.22;;;16.99;100.00
28167;BME280;15455;53.376;-6.262;2023-06-26T09:49:49;101508.88;;;17.08;100.00
28167;BME280;15455;53.376;-6.262;2023-06-26T09:52:36;101510.69;;;17.02;100.00
28167;BME280;15455;53.376;-6.262;2023-06-26T09:55:24;101526.78;;;16.87;100.00
28167;BME280;15455;53.376;-6.262;2023-06-26T09:58:11;101514.47;;;16.86;100.00
28167;BME280;15455;53.376;-6.262;2023-06-26T10:01:00;101519.53;;;17.01;100.00
28167;BME280;15455;53.376;-6.262;2023-06-26T10:03:46;101507.88;;;17.15;100.00
28167;BME280;15455;53.376;-6.262;2023-06-26T10:06:37;101514.56;;;17.33;100.00
28167;BME280;15455;53.376;-6.262;2023-06-26T10:09:24;101507.50;;;17.35;100.00
28167;BME280;15455;53.376;-6.262;2023-06-26T10:12:18;101507.53;;;17.33;100.00
28167;BME280;15455;53.376;-6.262;2023-06-26T10:15:06;101515.97;;;17.52;100.00
28167;BME280;15455;53.376;-6.262;2023-06-26T10:17:58;101524.53;;;17.65;100.00
28167;BME280;15455;53.376;-6.262;2023-06-26T10:20:46;101521.03;;;17.63;100.00
28167;BME280;15455;53.376;-6.262;2023-06-26T10:23:34;101520.16;;;17.63;100.00
28167;BME280;15455;53.376;-6.262;2023-06-26T10:26:21;101512.13;;;17.69;100.00
28167;BME280;15455;53.376;-6.262;2023-06-26T10:29:08;101531.13;;;17.86;100.00
28167;BME280;15455;53.376;-6.262;2023-06-26T10:31:57;101528.38;;;17.94;100.00
28167;BME280;15455;53.376;-6.262;2023-06-26T10:34:47;101522.16;;;17.97;100.00
28167;BME280;15455;53.376;-6.262;2023-06-26T10:37:47;101526.31;;;18.09;100.00
28167;BME280;15455;53.376;-6.262;2023-06-26T10:40:46;101532.03;;;18.29;100.00
28167;BME280;15455;53.376;-6.262;2023-06-26T10:43:34;101547.13;;;18.24;100.00
28167;BME280;15455;53.376;-6.262;2023-06-26T10:46:21;101569.72;;;17.48;100.00
28167;BME280;15455;53.376;-6.262;2023-06-26T10:49:12;101587.66;;;16.70;100.00
28167;BME280;15455;53.376;-6.262;2023-06-26T10:52:01;101599.69;;;16.23;100.00
28167;BME280;15455;53.376;-6.262;2023-06-26T10:54:46;101593.00;;;15.94;100.00
28167;BME280;15455;53.376;-6.262;2023-06-26T10:57:32;101598.22;;;15.97;100.00
28167;BME280;15455;53.376;-6.262;2023-06-26T11:00:17;101606.88;;;16.10;100.00
28167;BME280;15455;53.376;-6.262;2023-06-26T11:03:22;101596.41;;;16.04;100.00
28167;BME280;15455;53.376;-6.262;2023-06-26T11:06:09;101598.28;;;15.94;100.00
28167;BME280;15455;53.376;-6.262;2023-06-26T11:14:39;101602.09;;;16.41;100.00
28167;BME280;15455;53.376;-6.262;2023-06-26T11:17:25;101592.84;;;16.75;100.00
28167;BME280;15455;53.376;-6.262;2023-06-26T11:20:14;101591.69;;;16.97;100.00
28167;BME280;15455;53.376;-6.262;2023-06-26T11:23:01;101586.31;;;17.02;100.00
28167;BME280;15455;53.376;-6.262;2023-06-26T11:25:48;101592.63;;;16.93;100.00
28167;BME280;15455;53.376;-6.262;2023-06-26T11:28:34;101601.28;;;17.00;100.00
28167;BME280;15455;53.376;-6.262;2023-06-26T11:31:27;101608.81;;;17.26;100.00
28167;BME280;15455;53.376;-6.262;2023-06-26T11:34:13;101605.63;;;17.57;100.00
28167;BME280;15455;53.376;-6.262;2023-06-26T11:36:59;101605.47;;;17.65;100.00
28167;BME280;15455;53.376;-6.262;2023-06-26T11:39:46;101617.03;;;17.58;100.00
28167;BME280;15455;53.376;-6.262;2023-06-26T11:42:33;101612.44;;;17.69;100.00
28167;BME280;15455;53.376;-6.262;2023-06-26T11:45:19;101613.38;;;17.68;100.00
28167;BME280;15455;53.376;-6.262;2023-06-26T11:48:05;101611.78;;;17.56;100.00
28167;BME280;15455;53.376;-6.262;2023-06-26T11:50:51;101612.53;;;17.64;100.00
28167;BME280;15455;53.376;-6.262;2023-06-26T11:53:44;101606.97;;;17.80;100.00
28167;BME280;15455;53.376;-6.262;2023-06-26T11:56:30;101610.34;;;17.86;100.00
28167;BME280;15455;53.376;-6.262;2023-06-26T11:59:16;101600.28;;;18.09;100.00
28167;BME280;15455;53.376;-6.262;2023-06-26T12:02:04;101606.03;;;18.29;100.00
28167;BME280;15455;53.376;-6.262;2023-06-26T12:04:51;101601.03;;;18.56;100.00
28167;BME280;15455;53.376;-6.262;2023-06-26T12:07:37;101606.13;;;18.65;100.00
28167;BME280;15455;53.376;-6.262;2023-06-26T12:10:22;101608.00;;;18.60;100.00
28167;BME280;15455;53.376;-6.262;2023-06-26T12:13:08;101604.63;;;18.55;100.00
28167;BME280;15455;53.376;-6.262;2023-06-26T12:15:53;101597.91;;;18.38;100.00
28167;BME280;15455;53.376;-6.262;2023-06-26T12:18:39;101598.53;;;18.50;100.00
28167;BME280;15455;53.376;-6.262;2023-06-26T12:21:44;101606.97;;;18.67;100.00
28167;BME280;15455;53.376;-6.262;2023-06-26T12:24:31;101598.50;;;18.92;100.00
28167;BME280;15455;53.376;-6.262;2023-06-26T12:27:18;101604.13;;;19.16;100.00
28167;BME280;15455;53.376;-6.262;2023-06-26T12:30:04;101602.00;;;19.30;100.00
28167;BME280;15455;53.376;-6.262;2023-06-26T12:32:50;101595.59;;;19.39;100.00
28167;BME280;15455;53.376;-6.262;2023-06-26T12:35:36;101603.66;;;19.67;100.00
28167;BME280;15455;53.376;-6.262;2023-06-26T12:38:22;101589.88;;;19.89;100.00
28167;BME280;15455;53.376;-6.262;2023-06-26T12:41:14;101592.47;;;20.22;100.00
28167;BME280;15455;53.376;-6.262;2023-06-26T12:44:00;101591.63;;;20.51;100.00
28167;BME280;15455;53.376;-6.262;2023-06-26T12:46:47;101599.91;;;20.70;100.00
28167;BME280;15455;53.376;-6.262;2023-06-26T12:49:35;101595.72;;;20.61;100.00
28167;BME280;15455;53.376;-6.262;2023-06-26T12:52:21;101592.44;;;20.53;100.00
28167;BME280;15455;53.376;-6.262;2023-06-26T12:55:07;101596.81;;;20.54;100.00
28167;BME280;15455;53.376;-6.262;2023-06-26T12:57:53;101593.69;;;20.41;100.00
28167;BME280;15455;53.376;-6.262;2023-06-26T13:00:38;101589.31;;;20.39;100.00
28167;BME280;15455;53.376;-6.262;2023-06-26T13:03:26;101582.06;;;20.45;100.00
28167;BME280;15455;53.376;-6.262;2023-06-26T13:06:12;101601.34;;;20.21;100.00
28167;BME280;15455;53.376;-6.262;2023-06-26T13:09:00;101588.44;;;19.75;100.00
28167;BME280;15455;53.376;-6.262;2023-06-26T13:11:49;101595.44;;;19.80;100.00
28167;BME280;15455;53.376;-6.262;2023-06-26T13:14:34;101582.25;;;19.76;100.00
28167;BME280;15455;53.376;-6.262;2023-06-26T13:17:20;101585.88;;;19.72;100.00
28167;BME280;15455;53.376;-6.262;2023-06-26T13:20:06;101588.78;;;19.98;100.00
28167;BME280;15455;53.376;-6.262;2023-06-26T13:22:54;101591.53;;;20.54;100.00
28167;BME280;15455;53.376;-6.262;2023-06-26T13:25:39;101591.03;;;21.26;100.00
28167;BME280;15455;53.376;-6.262;2023-06-26T13:28:25;101594.44;;;21.57;100.00
28167;BME280;15455;53.376;-6.262;2023-06-26T13:31:10;101596.06;;;21.61;100.00
28167;BME280;15455;53.376;-6.262;2023-06-26T13:33:57;101596.91;;;21.86;100.00
28167;BME280;15455;53.376;-6.262;2023-06-26T13:36:43;101604.13;;;21.83;100.00
28167;BME280;15455;53.376;-6.262;2023-06-26T13:39:29;101606.78;;;21.31;100.00
28167;BME280;15455;53.376;-6.262;2023-06-26T13:42:16;101612.41;;;20.65;100.00
28167;BME280;15455;53.376;-6.262;2023-06-26T13:45:02;101611.69;;;20.30;100.00
28167;BME280;15455;53.376;-6.262;2023-06-26T13:47:56;101623.88;;;20.04;100.00
28167;BME280;15455;53.376;-6.262;2023-06-26T13:50:42;101609.81;;;20.02;100.00
28167;BME280;15455;53.376;-6.262;2023-06-26T13:53:38;101608.16;;;19.98;100.00
28167;BME280;15455;53.376;-6.262;2023-06-26T13:56:24;101601.84;;;20.34;100.00
28167;BME280;15455;53.376;-6.262;2023-06-26T13:59:09;101618.50;;;20.97;100.00
28167;BME280;15455;53.376;-6.262;2023-06-26T14:01:56;101616.78;;;21.23;100.00
28167;BME280;15455;53.376;-6.262;2023-06-26T14:04:42;101615.00;;;21.50;100.00
28167;BME280;15455;53.376;-6.262;2023-06-26T14:07:27;101606.78;;;21.83;100.00
28167;BME280;15455;53.376;-6.262;2023-06-26T14:10:13;101611.81;;;21.91;100.00
28167;BME280;15455;53.376;-6.262;2023-06-26T14:12:59;101603.66;;;21.95;100.00
28167;BME280;15455;53.376;-6.262;2023-06-26T14:15:45;101615.94;;;21.99;100.00
28167;BME280;15455;53.376;-6.262;2023-06-26T14:18:30;101622.81;;;22.05;100.00